N16635 LPCS-LPCS

Flight info

Callsign N16635
Flight time 0h 2m
Altitude 3000
Route PTT
Aircraft PA28/L-VGDW/C

Departure

Time 2026-04-11 12:01
Airport Cascais Airport (LPCS)

Arrival

Time 2026-04-11 12:04
Airport Cascais Airport (LPCS)
Time Latitude Longitude Altitude Speed Heading
2026-04-11 11:49 38.71920 -9.35288 280 ft 0 kts 254°
2026-04-11 12:00 38.71918 -9.35301 280 ft 6 kts 280°
2026-04-11 12:00 38.71930 -9.35312 281 ft 0 kts 348°
2026-04-11 12:00 38.72050 -9.35355 287 ft 43 kts 343°
2026-04-11 12:01 38.72429 -9.35488 417 ft 66 kts 349°
2026-04-11 12:01 38.72911 -9.35653 645 ft 78 kts 348°
2026-04-11 12:01 38.73494 -9.35799 847 ft 91 kts 350°
2026-04-11 12:01 38.73986 -9.36336 1054 ft 109 kts 306°
2026-04-11 12:02 38.73778 -9.37396 1043 ft 144 kts 245°
2026-04-11 12:02 38.72903 -9.38064 1033 ft 161 kts 181°
2026-04-11 12:02 38.71886 -9.37662 1201 ft 144 kts 154°
2026-04-11 12:02 38.70929 -9.37266 1160 ft 149 kts 161°
2026-04-11 12:03 38.69974 -9.36905 1212 ft 128 kts 147°
2026-04-11 12:03 38.69501 -9.36193 1131 ft 88 kts 85°
2026-04-11 12:03 38.69540 -9.35546 1087 ft 73 kts 58°
2026-04-11 12:03 38.69686 -9.34914 1054 ft 71 kts 51°
2026-04-11 12:04 38.69920 -9.34473 1010 ft 49 kts 353°
2026-04-11 12:04 38.70275 -9.34683 782 ft 55 kts 345°
2026-04-11 12:04 38.70606 -9.34810 662 ft 45 kts 346°
2026-04-11 12:04 38.70883 -9.34935 621 ft 41 kts 348°
2026-04-11 12:05 38.71194 -9.35039 490 ft 52 kts 346°
2026-04-11 12:05 38.71545 -9.35188 355 ft 56 kts 353°
2026-04-11 12:05 38.71906 -9.35303 319 ft 52 kts 350°
2026-04-11 12:05 38.72193 -9.35409 292 ft 31 kts 352°
2026-04-11 12:06 38.72414 -9.35490 302 ft 51 kts 346°
2026-04-11 12:06 38.72760 -9.35624 567 ft 58 kts 351°
2026-04-11 12:06 38.73217 -9.35774 816 ft 76 kts 354°
2026-04-11 12:06 38.73783 -9.35822 1093 ft 86 kts
2026-04-11 12:07 38.74225 -9.36168 1609 ft 84 kts 306°
2026-04-11 12:07 38.74293 -9.37071 1616 ft 116 kts 285°
2026-04-11 12:07 38.74146 -9.38178 1680 ft 141 kts 253°
2026-04-11 12:07 38.73420 -9.39115 1487 ft 157 kts 227°
2026-04-11 12:08 38.72335 -9.39347 1411 ft 157 kts 178°
2026-04-11 12:08 38.71284 -9.39193 1334 ft 146 kts 162°
2026-04-11 12:08 38.70419 -9.38590 1204 ft 142 kts 144°
2026-04-11 12:08 38.69589 -9.37853 1184 ft 146 kts 118°
2026-04-11 12:09 38.69370 -9.36672 1218 ft 130 kts 78°
2026-04-11 12:09 38.69377 -9.35534 1248 ft 125 kts 74°
2026-04-11 12:09 38.69571 -9.34494 1133 ft 118 kts 43°
2026-04-11 12:09 38.70255 -9.34379 846 ft 121 kts 327°
2026-04-11 12:10 38.70965 -9.34961 570 ft 121 kts 346°
2026-04-11 12:10 38.71717 -9.35234 417 ft 98 kts 349°
2026-04-11 12:10 38.72341 -9.35459 308 ft 99 kts 348°
2026-04-11 12:10 38.72779 -9.35983 744 ft 110 kts 278°
2026-04-11 12:11 38.72427 -9.37058 932 ft 134 kts 249°
2026-04-11 12:11 38.71686 -9.37782 1029 ft 148 kts 200°
2026-04-11 12:11 38.70691 -9.37762 990 ft 137 kts 166°
2026-04-11 12:11 38.69801 -9.37510 1044 ft 127 kts 158°
2026-04-11 12:12 38.69245 -9.36815 983 ft 109 kts 94°
2026-04-11 12:12 38.69140 -9.35897 978 ft 100 kts 72°
2026-04-11 12:12 38.69258 -9.35059 956 ft 94 kts 53°
2026-04-11 12:12 38.69629 -9.34533 993 ft 76 kts
2026-04-11 12:13 38.70114 -9.34646 873 ft 66 kts 353°
2026-04-11 12:13 38.70509 -9.34786 796 ft 50 kts 355°
2026-04-11 12:13 38.70857 -9.34920 672 ft 50 kts 353°
2026-04-11 12:13 38.71182 -9.35044 551 ft 51 kts 348°
2026-04-11 12:14 38.71533 -9.35173 411 ft 55 kts
2026-04-11 12:14 38.71891 -9.35303 314 ft 52 kts 350°
2026-04-11 12:14 38.72181 -9.35404 293 ft 32 kts 351°
2026-04-11 12:14 38.72296 -9.35437 298 ft 5 kts 20°
2026-04-11 12:15 38.72314 -9.35415 300 ft 8 kts 61°
2026-04-11 12:15 38.72336 -9.35357 301 ft 4 kts
2026-04-11 12:15 38.72381 -9.35344 303 ft 12 kts 59°
2026-04-11 12:15 38.72395 -9.35333 303 ft 0 kts 329°